Time,TemperatureF,DewpointF,PressureIn,WindDirection,WindDirectionDegrees,WindSpeedMPH,WindSpeedGustMPH,Humidity,HourlyPrecipIn,Conditions,Clouds,dailyrainin,SolarRadiationWatts/m^2,SoftwareType,DateUTC
2013-04-10 00:22:00,55.0,28.0,-100.00,ENE,78,2.0,6.0,35,-99.99,,,0.00,0.000000,,2013-04-10 07:22:00,
2013-04-10 00:51:00,53.0,27.0,-100.00,ENE,76,6.0,10.0,37,0.00,,,-99.99,0.000000,,2013-04-10 07:51:00,
2013-04-10 01:22:00,53.0,27.0,-100.00,ENE,76,6.0,10.0,37,0.00,,,-99.99,0.000000,,2013-04-10 08:22:00,
2013-04-10 01:32:00,53.0,27.0,-100.00,ENE,76,6.0,10.0,37,0.00,,,-99.99,0.000000,,2013-04-10 08:32:00,
2013-04-10 01:42:00,53.0,27.0,-100.00,ENE,76,6.0,10.0,37,0.00,,,-99.99,0.000000,,2013-04-10 08:42:00,
2013-04-10 01:51:00,54.0,30.0,-100.00,East,93,4.0,9.0,39,0.00,,,0.00,0.000000,,2013-04-10 08:51:00,
2013-04-10 02:22:00,54.0,30.0,-100.00,East,93,4.0,9.0,39,0.00,,,0.00,0.000000,,2013-04-10 09:22:00,
2013-04-10 02:32:00,54.0,30.0,-100.00,East,93,4.0,9.0,39,0.00,,,0.00,0.000000,,2013-04-10 09:32:00,
2013-04-10 02:42:00,54.0,30.0,-100.00,East,93,4.0,9.0,39,0.00,,,0.00,0.000000,,2013-04-10 09:42:00,
2013-04-10 02:51:00,52.0,27.0,-100.00,ENE,73,6.0,11.0,37,-99.99,,,0.00,0.000000,,2013-04-10 09:51:00,
2013-04-10 03:12:00,52.0,27.0,-100.00,ENE,73,6.0,11.0,37,-99.99,,,0.00,0.000000,,2013-04-10 10:12:00,
2013-04-10 03:42:00,52.0,27.0,-100.00,ENE,73,6.0,11.0,37,-99.99,,,0.00,0.000000,,2013-04-10 10:42:00,
2013-04-10 03:51:00,56.0,27.0,-100.00,WSW,249,3.0,10.0,33,0.00,,,-99.99,0.000000,,2013-04-10 10:51:00,
2013-04-10 04:12:00,56.0,27.0,-100.00,WSW,249,3.0,10.0,33,0.00,,,-99.99,0.000000,,2013-04-10 11:12:00,
2013-04-10 04:22:00,56.0,27.0,-100.00,WSW,249,3.0,10.0,33,0.00,,,-99.99,0.000000,,2013-04-10 11:22:00,
2013-04-10 04:42:00,56.0,27.0,-100.00,WSW,249,3.0,10.0,33,0.00,,,-99.99,0.000000,,2013-04-10 11:42:00,
2013-04-10 05:51:00,56.0,29.0,-100.00,North,6,8.0,14.0,36,-99.99,,,0.00,0.000000,,2013-04-10 12:51:00,
2013-04-10 06:32:00,56.0,29.0,-100.00,North,6,8.0,14.0,36,-99.99,,,0.00,0.000000,,2013-04-10 13:32:00,
2013-04-10 06:42:00,56.0,29.0,-100.00,North,6,8.0,14.0,36,-99.99,,,0.00,0.000000,,2013-04-10 13:42:00,
2013-04-10 08:51:00,66.0,39.0,-100.00,West,272,7.0,17.0,37,-99.99,,,0.00,341.000000,,2013-04-10 15:51:00,
2013-04-10 09:23:00,66.0,39.0,-100.00,West,272,7.0,17.0,37,-99.99,,,0.00,341.000000,,2013-04-10 16:23:00,
2013-04-10 09:32:00,66.0,39.0,-100.00,West,272,7.0,17.0,37,-99.99,,,0.00,341.000000,,2013-04-10 16:32:00,
2013-04-10 09:42:00,66.0,39.0,-100.00,West,272,7.0,17.0,37,-99.99,,,0.00,341.000000,,2013-04-10 16:42:00,
2013-04-10 09:51:00,69.0,42.0,-100.00,WSW,255,10.0,17.0,37,0.00,,,-99.99,557.000000,,2013-04-10 16:51:00,
2013-04-10 10:12:00,69.0,42.0,-100.00,WSW,255,10.0,17.0,37,0.00,,,-99.99,557.000000,,2013-04-10 17:12:00,
2013-04-10 10:22:00,69.0,42.0,-100.00,WSW,255,10.0,17.0,37,0.00,,,-99.99,557.000000,,2013-04-10 17:22:00,
2013-04-10 10:33:00,69.0,42.0,-100.00,WSW,255,10.0,17.0,37,0.00,,,-99.99,557.000000,,2013-04-10 17:33:00,
2013-04-10 10:42:00,69.0,42.0,-100.00,WSW,255,10.0,17.0,37,0.00,,,-99.99,557.000000,,2013-04-10 17:42:00,
2013-04-10 10:51:00,68.0,44.0,-100.00,SW,236,13.0,22.0,42,0.00,,,0.00,730.000000,,2013-04-10 17:51:00,
2013-04-10 11:12:00,68.0,44.0,-100.00,SW,236,13.0,22.0,42,0.00,,,0.00,730.000000,,2013-04-10 18:12:00,
2013-04-10 11:32:00,68.0,44.0,-100.00,SW,236,13.0,22.0,42,0.00,,,0.00,730.000000,,2013-04-10 18:32:00,
2013-04-10 11:42:00,68.0,44.0,-100.00,SW,236,13.0,22.0,42,0.00,,,0.00,730.000000,,2013-04-10 18:42:00,
2013-04-10 11:51:00,73.0,47.0,-100.00,West,261,10.0,18.0,39,0.00,,,-99.99,853.000000,,2013-04-10 18:51:00,
2013-04-10 12:22:00,73.0,47.0,-100.00,West,261,10.0,18.0,39,0.00,,,-99.99,853.000000,,2013-04-10 19:22:00,
2013-04-10 12:42:00,73.0,47.0,-100.00,West,261,10.0,18.0,39,0.00,,,-99.99,853.000000,,2013-04-10 19:42:00,
2013-04-10 12:51:00,76.0,42.0,-100.00,WSW,250,14.0,17.0,30,0.00,,,0.00,915.000000,,2013-04-10 19:51:00,
2013-04-10 13:23:00,76.0,42.0,-100.00,WSW,250,14.0,17.0,30,0.00,,,0.00,915.000000,,2013-04-10 20:23:00,
2013-04-10 13:32:00,76.0,42.0,-100.00,WSW,250,14.0,17.0,30,0.00,,,0.00,915.000000,,2013-04-10 20:32:00,
2013-04-10 13:42:00,76.0,42.0,-100.00,WSW,250,14.0,17.0,30,0.00,,,0.00,915.000000,,2013-04-10 20:42:00,
2013-04-10 13:51:00,75.0,41.0,-100.00,WSW,248,19.0,25.0,29,0.00,,,-99.99,926.000000,,2013-04-10 20:51:00,
2013-04-10 14:22:00,75.0,41.0,-100.00,WSW,248,19.0,25.0,29,0.00,,,-99.99,926.000000,,2013-04-10 21:22:00,
2013-04-10 14:32:00,75.0,41.0,-100.00,WSW,248,19.0,25.0,29,0.00,,,-99.99,926.000000,,2013-04-10 21:32:00,
2013-04-10 14:42:00,75.0,41.0,-100.00,WSW,248,19.0,25.0,29,0.00,,,-99.99,926.000000,,2013-04-10 21:42:00,
2013-04-10 14:51:00,75.0,39.0,-100.00,WSW,246,16.0,26.0,27,0.00,,,0.00,877.000000,,2013-04-10 21:51:00,
2013-04-10 15:22:00,75.0,39.0,-100.00,WSW,246,16.0,26.0,27,0.00,,,0.00,877.000000,,2013-04-10 22:22:00,
2013-04-10 15:33:00,75.0,39.0,-100.00,WSW,246,16.0,26.0,27,0.00,,,0.00,877.000000,,2013-04-10 22:33:00,
2013-04-10 15:42:00,75.0,39.0,-100.00,WSW,246,16.0,26.0,27,0.00,,,0.00,877.000000,,2013-04-10 22:42:00,
2013-04-10 15:51:00,73.0,44.0,-100.00,WSW,240,15.0,21.0,35,0.00,,,0.00,763.000000,,2013-04-10 22:51:00,
2013-04-10 16:22:00,73.0,44.0,-100.00,WSW,240,15.0,21.0,35,0.00,,,0.00,763.000000,,2013-04-10 23:22:00,
2013-04-10 16:32:00,73.0,44.0,-100.00,WSW,240,15.0,21.0,35,0.00,,,0.00,763.000000,,2013-04-10 23:32:00,
2013-04-10 16:42:00,73.0,44.0,-100.00,WSW,240,15.0,21.0,35,0.00,,,0.00,763.000000,,2013-04-10 23:42:00,
2013-04-10 16:51:00,77.0,26.0,-100.00,West,276,14.0,22.0,15,0.00,,,0.00,594.000000,,2013-04-10 23:51:00,
2013-04-10 17:22:00,77.0,26.0,-100.00,West,276,14.0,22.0,15,0.00,,,0.00,594.000000,,2013-04-11 00:22:00,
2013-04-10 17:32:00,77.0,26.0,-100.00,West,276,14.0,22.0,15,0.00,,,0.00,594.000000,,2013-04-11 00:32:00,
2013-04-10 17:42:00,77.0,26.0,-100.00,West,276,14.0,22.0,15,0.00,,,0.00,594.000000,,2013-04-11 00:42:00,
2013-04-10 17:51:00,75.0,26.0,-100.00,West,272,13.0,22.0,16,0.00,,,0.00,394.000000,,2013-04-11 00:51:00,
2013-04-10 18:22:00,75.0,26.0,-100.00,West,272,13.0,22.0,16,0.00,,,0.00,394.000000,,2013-04-11 01:22:00,
2013-04-10 18:32:00,75.0,26.0,-100.00,West,272,13.0,22.0,16,0.00,,,0.00,394.000000,,2013-04-11 01:32:00,
2013-04-10 18:42:00,75.0,26.0,-100.00,West,272,13.0,22.0,16,0.00,,,0.00,394.000000,,2013-04-11 01:42:00,
2013-04-10 18:51:00,73.0,26.0,-100.00,WNW,283,7.0,15.0,17,0.00,,,0.00,176.000000,,2013-04-11 01:51:00,
2013-04-10 19:12:00,73.0,26.0,-100.00,WNW,283,7.0,15.0,17,0.00,,,0.00,176.000000,,2013-04-11 02:12:00,
2013-04-10 19:22:00,73.0,26.0,-100.00,WNW,283,7.0,15.0,17,0.00,,,0.00,176.000000,,2013-04-11 02:22:00,
2013-04-10 19:32:00,73.0,26.0,-100.00,WNW,283,7.0,15.0,17,0.00,,,0.00,176.000000,,2013-04-11 02:32:00,
2013-04-10 19:42:00,73.0,26.0,-100.00,WNW,283,7.0,15.0,17,0.00,,,0.00,176.000000,,2013-04-11 02:42:00,
2013-04-10 20:22:00,63.0,35.0,-100.00,WSW,241,7.0,13.0,35,-99.99,,,0.00,14.000000,,2013-04-11 03:22:00,
2013-04-10 20:33:00,63.0,35.0,-100.00,WSW,241,7.0,13.0,35,-99.99,,,0.00,14.000000,,2013-04-11 03:33:00,
2013-04-10 20:43:00,63.0,35.0,-100.00,WSW,241,7.0,13.0,35,-99.99,,,0.00,14.000000,,2013-04-11 03:43:00,
2013-04-10 20:51:00,62.0,37.0,-100.00,NE,46,4.0,9.0,39,0.00,,,0.00,0.000000,,2013-04-11 03:51:00,
2013-04-10 21:22:00,62.0,37.0,-100.00,NE,46,4.0,9.0,39,0.00,,,0.00,0.000000,,2013-04-11 04:22:00,
2013-04-10 21:33:00,62.0,37.0,-100.00,NE,46,4.0,9.0,39,0.00,,,0.00,0.000000,,2013-04-11 04:33:00,
2013-04-10 21:42:00,62.0,37.0,-100.00,NE,46,4.0,9.0,39,0.00,,,0.00,0.000000,,2013-04-11 04:42:00,
2013-04-10 21:51:00,60.0,28.0,-100.00,East,79,8.0,12.0,29,0.00,,,0.00,0.000000,,2013-04-11 04:51:00,
2013-04-10 22:22:00,60.0,28.0,-100.00,East,79,8.0,12.0,29,0.00,,,0.00,0.000000,,2013-04-11 05:22:00,
2013-04-10 22:32:00,60.0,28.0,-100.00,East,79,8.0,12.0,29,0.00,,,0.00,0.000000,,2013-04-11 05:32:00,
2013-04-10 22:42:00,60.0,28.0,-100.00,East,79,8.0,12.0,29,0.00,,,0.00,0.000000,,2013-04-11 05:42:00,
2013-04-10 22:51:00,59.0,26.0,-100.00,ESE,106,6.0,11.0,28,0.00,,,0.00,0.000000,,2013-04-11 05:51:00,
2013-04-10 23:22:00,59.0,26.0,-100.00,ESE,106,6.0,11.0,28,0.00,,,0.00,0.000000,,2013-04-11 06:22:00,
2013-04-10 23:32:00,59.0,26.0,-100.00,ESE,106,6.0,11.0,28,0.00,,,0.00,0.000000,,2013-04-11 06:32:00,
2013-04-10 23:42:00,59.0,26.0,-100.00,ESE,106,6.0,11.0,28,0.00,,,0.00,0.000000,,2013-04-11 06:42:00,